Pagina principale
METAR-TAF:

METAR-TAF

Aeroporti :

Pápa, Ungheria

latitudine: 47-12N, longitudine: 017-30E, altezza: 145 m

Osservazione

Il bollettino è stato emesso 27 minuti fa, alle 15:45 UTC
Vento 4 kt da est/sud-est
Temperature 30°C
Umidità 46%
Pressione 1018 hPa
Visibilità 10 km o più
Poco nuvoloso ad un'altezza di 6700 ft, Cumulo congesto.

METAR: LHPA 181545Z 12004KT 9999 FEW067TCU 30/17 Q1018 NOSIG RMK BLU

Ora: 18:12 (16:12 UTC)

Previsione

Il bollettino è stato emesso 4 ore e 57 minuti fa, alle 11:15 UTC
Previsione valida dal 18 alle 12 UTC al 19 alle 12 UTC
Vento 4 kt da direzioni variabili
Visibilità 10 km o più
nessuna nube inferiore a 1500 m e nessun cumulonembo
Temporaneamente
dal 18 alle 12 UTC al 18 alle 16 UTC
Visibilità 10 km o più
Poco nuvoloso ad un'altezza di 5000 ft, Cumulo congesto.

TAF: LHPA 181115Z 1812/1912 VRB04KT CAVOK TEMPO 1812/1816 9999 FEW050TCU

Osservazioni e previsioni meteorologiche di più di 4000 aeroporti (messaggi METAR e TAF).

Le stazioni disponibili sono rappresentate dai dischi gialli e rossi sulla carta.

Puntare il mouse per vedere il nome della stazione.

Clicca sopra per visualizzare le osservazioni e previsioni meteorologiche.

Per cambiare la mappa : fare clic sui pulsanti verdi con una croce nera per ingrandire, il pulsante verde con un trattino per diminuire, o sulla freccia verde per le mappe adiacenti.


METAR-TAF: